createdAt,value
2022-11-14T00:00:32.966Z,53.74
2022-11-14T00:01:08.386Z,49.47
2022-11-14T00:01:43.378Z,58.24
2022-11-14T00:02:18.637Z,62.32
2022-11-14T00:02:53.834Z,45.64
2022-11-14T00:03:28.969Z,65.30
2022-11-14T00:04:04.019Z,57.07
2022-11-14T00:04:39.316Z,66.09
2022-11-14T00:05:14.596Z,51.73
2022-11-14T00:05:49.599Z,75.00
2022-11-14T00:06:24.669Z,58.72
2022-11-14T00:07:00.268Z,52.52
2022-11-14T00:07:35.367Z,75.00
2022-11-14T00:08:10.993Z,40.34
2022-11-14T00:08:46.195Z,51.50
2022-11-14T00:09:21.395Z,52.21
2022-11-14T00:09:57.017Z,44.14
2022-11-14T00:10:32.401Z,48.31
2022-11-14T00:11:07.500Z,51.73
2022-11-14T00:11:42.886Z,75.00
2022-11-14T00:12:18.067Z,71.63
2022-11-14T00:12:53.367Z,61.60
2022-11-14T00:13:28.644Z,70.25
2022-11-14T00:14:03.881Z,53.30
2022-11-14T00:14:39.170Z,35.42
2022-11-14T00:15:14.458Z,68.08
2022-11-14T00:15:49.552Z,55.57
2022-11-14T00:16:24.550Z,41.26
2022-11-14T00:16:59.456Z,65.30
2022-11-14T00:17:34.656Z,70.97
2022-11-14T00:18:09.858Z,41.17
2022-11-14T00:18:45.050Z,54.80
2022-11-14T00:19:20.343Z,75.00
2022-11-14T00:19:55.841Z,75.00
2022-11-14T00:20:30.940Z,57.85
2022-11-14T00:21:06.218Z,60.11
2022-11-14T00:21:41.530Z,47.95
2022-11-14T00:22:16.537Z,75.00
2022-11-14T00:22:51.619Z,75.00
2022-11-14T00:23:26.828Z,66.67
2022-11-14T00:24:01.946Z,75.00
2022-11-14T00:24:37.324Z,70.97
2022-11-14T00:25:12.477Z,69.53
2022-11-14T00:25:47.972Z,75.00
2022-11-14T00:26:23.339Z,75.00
2022-11-14T00:26:58.509Z,12.34
2022-11-14T00:27:34.006Z,348.33
2022-11-14T00:28:09.281Z,30.00
2022-11-14T00:28:44.576Z,215.73
2022-11-14T00:29:20.067Z,75.00
2022-11-14T00:29:55.062Z,75.00
2022-11-14T00:30:30.303Z,62.35
2022-11-14T00:31:05.395Z,63.08
2022-11-14T00:31:40.689Z,34.49
2022-11-14T00:32:15.980Z,63.08
2022-11-14T00:32:51.169Z,30.00
2022-11-14T00:33:26.839Z,63.51
2022-11-14T00:34:02.138Z,71.81
2022-11-14T00:34:37.526Z,41.26
2022-11-14T00:35:12.740Z,66.15
2022-11-14T00:35:47.773Z,66.01
2022-11-14T00:36:23.269Z,50.20
2022-11-14T00:36:58.456Z,62.35
2022-11-14T00:37:33.924Z,57.84
2022-11-14T00:38:09.033Z,70.97
2022-11-14T00:38:44.266Z,75.00
2022-11-14T00:39:19.575Z,51.73
2022-11-14T00:39:54.670Z,42.65
2022-11-14T00:40:30.157Z,54.04
2022-11-14T00:41:05.475Z,35.25
2022-11-14T00:41:40.659Z,75.00
2022-11-14T00:42:16.045Z,66.67
2022-11-14T00:42:51.315Z,21.55
2022-11-14T00:43:26.521Z,63.08
2022-11-14T00:44:01.830Z,60.86
2022-11-14T00:44:36.922Z,46.63
2022-11-14T00:45:12.019Z,65.72
2022-11-14T00:45:47.296Z,50.20
2022-11-14T00:46:22.663Z,67.44
2022-11-14T00:46:58.238Z,61.59
2022-11-14T00:47:33.231Z,45.71
2022-11-14T00:48:08.638Z,39.03
2022-11-14T00:48:43.820Z,66.01
2022-11-14T00:49:19.029Z,50.99
2022-11-14T00:49:54.203Z,62.34
2022-11-14T00:50:29.405Z,55.35
2022-11-14T00:51:04.383Z,59.94
2022-11-14T00:51:39.491Z,36.83
2022-11-14T00:52:14.907Z,37.59
2022-11-14T00:52:50.083Z,60.51
2022-11-14T00:53:25.580Z,74.41
2022-11-14T00:54:00.666Z,53.27
2022-11-14T00:54:36.374Z,48.06
2022-11-14T00:55:11.659Z,63.78
2022-11-14T00:55:46.681Z,59.36
2022-11-14T00:56:21.942Z,50.30
2022-11-14T00:56:57.367Z,51.73
2022-11-14T00:57:32.780Z,41.26
2022-11-14T00:58:07.860Z,76.75
2022-11-14T00:58:43.267Z,56.32
2022-11-14T00:59:18.340Z,56.34
2022-11-14T00:59:53.359Z,61.42
2022-11-14T01:00:28.487Z,74.41
2022-11-14T01:01:03.712Z,70.97
2022-11-14T01:01:38.952Z,75.00
2022-11-14T01:02:14.253Z,50.99
2022-11-14T01:02:49.544Z,41.26
2022-11-14T01:03:24.826Z,60.86
2022-11-14T01:04:00.242Z,46.27
2022-11-14T01:04:35.523Z,53.33
2022-11-14T01:05:10.753Z,59.36
2022-11-14T01:05:45.765Z,52.39
2022-11-14T01:06:21.269Z,55.69
2022-11-14T01:06:56.267Z,76.04
2022-11-14T01:07:31.577Z,39.80
2022-11-14T01:08:06.564Z,73.68
2022-11-14T01:08:41.852Z,75.00
2022-11-14T01:09:17.182Z,51.64
2022-11-14T01:09:52.434Z,63.78
2022-11-14T01:10:27.525Z,59.94
2022-11-14T01:11:02.596Z,247.11
2022-11-14T01:11:37.697Z,21.17
2022-11-14T01:12:12.890Z,54.63
2022-11-14T01:12:48.295Z,52.13
2022-11-14T01:13:23.491Z,74.93
2022-11-14T01:13:58.995Z,68.17
2022-11-14T01:14:34.390Z,75.00
2022-11-14T01:15:09.695Z,357.33
2022-11-14T01:15:45.177Z,75.74
2022-11-14T01:16:20.781Z,75.00
2022-11-14T01:16:56.162Z,75.00
2022-11-14T01:17:31.153Z,61.60
2022-11-14T01:18:06.756Z,52.79
2022-11-14T01:18:42.038Z,69.58
2022-11-14T01:19:17.028Z,41.39
2022-11-14T01:19:52.215Z,73.61
2022-11-14T01:20:27.397Z,61.36
2022-11-14T01:21:02.575Z,6.26
2022-11-14T01:21:37.966Z,52.39
2022-11-14T01:22:13.242Z,75.00
2022-11-14T01:22:48.732Z,75.00
2022-11-14T01:23:24.130Z,75.00
2022-11-14T01:23:59.598Z,71.63
2022-11-14T01:24:34.695Z,60.11
2022-11-14T01:25:10.008Z,75.00
2022-11-14T01:25:45.326Z,68.17
2022-11-14T01:26:20.416Z,48.64
2022-11-14T01:26:55.613Z,35.55
2022-11-14T01:27:30.818Z,75.00
2022-11-14T01:28:06.209Z,55.57
2022-11-14T01:28:41.431Z,50.66
2022-11-14T01:29:16.740Z,91.03
2022-11-14T01:29:52.026Z,63.24
2022-11-14T01:30:27.310Z,48.62
2022-11-14T01:31:02.592Z,68.13
2022-11-14T01:31:37.885Z,60.86
2022-11-14T01:32:13.354Z,75.03
2022-11-14T01:32:48.783Z,52.55
2022-11-14T01:33:23.867Z,76.44
2022-11-14T01:33:59.179Z,71.63
2022-11-14T01:34:34.170Z,48.00
2022-11-14T01:35:09.270Z,37.59
2022-11-14T01:35:44.662Z,57.03
2022-11-14T01:36:19.847Z,56.32
2022-11-14T01:36:55.143Z,46.50
2022-11-14T01:37:30.436Z,58.49
2022-11-14T01:38:05.629Z,70.25
2022-11-14T01:38:40.615Z,75.00
2022-11-14T01:39:16.073Z,75.00
2022-11-14T01:39:51.286Z,73.68
2022-11-14T01:40:26.781Z,73.68
2022-11-14T01:41:01.966Z,223.57
2022-11-14T01:41:37.085Z,82.31
2022-11-14T01:42:12.281Z,73.68
2022-11-14T01:42:47.468Z,75.00
2022-11-14T01:43:22.470Z,72.34
2022-11-14T01:43:57.734Z,54.86
2022-11-14T01:44:33.270Z,48.63
2022-11-14T01:45:08.260Z,49.52
2022-11-14T01:45:43.253Z,43.40
2022-11-14T01:46:18.554Z,55.57
2022-11-14T01:46:53.839Z,45.21
2022-11-14T01:47:29.048Z,61.60
2022-11-14T01:48:04.323Z,69.58
2022-11-14T01:48:39.823Z,75.00
2022-11-14T01:49:15.149Z,39.55
2022-11-14T01:49:50.444Z,52.75
2022-11-14T01:50:25.757Z,60.86
2022-11-14T01:51:01.236Z,65.30
2022-11-14T01:51:36.555Z,46.50
2022-11-14T01:52:11.661Z,65.34
2022-11-14T01:52:47.055Z,60.00
2022-11-14T01:53:22.256Z,66.74
2022-11-14T01:53:57.641Z,57.10
2022-11-14T01:54:32.861Z,69.58
2022-11-14T01:55:07.974Z,57.85
2022-11-14T01:55:43.160Z,80.77
2022-11-14T01:56:18.358Z,48.16
2022-11-14T01:56:53.460Z,78.38
2022-11-14T01:57:28.781Z,60.10
2022-11-14T01:58:04.077Z,59.36
2022-11-14T01:58:39.382Z,34.78
2022-11-14T01:59:14.777Z,65.98
2022-11-14T01:59:50.069Z,48.73
2022-11-14T02:00:25.571Z,75.00
2022-11-14T02:01:00.733Z,75.00
2022-11-14T02:01:35.813Z,44.92
2022-11-14T02:02:10.983Z,41.38
2022-11-14T02:02:46.183Z,61.55
2022-11-14T02:03:21.385Z,56.32
2022-11-14T02:03:56.769Z,67.44
2022-11-14T02:04:31.963Z,52.86
2022-11-14T02:05:06.972Z,63.04
2022-11-14T02:05:42.372Z,54.84
2022-11-14T02:06:17.391Z,68.86
2022-11-14T02:06:52.936Z,75.00
2022-11-14T02:07:28.271Z,46.43
2022-11-14T02:08:03.482Z,61.12
2022-11-14T02:08:38.386Z,75.00
2022-11-14T02:09:13.881Z,48.15
2022-11-14T02:09:49.190Z,52.52
2022-11-14T02:10:24.478Z,60.00
2022-11-14T02:10:59.700Z,94.52
2022-11-14T02:11:35.411Z,49.47
2022-11-14T02:12:10.630Z,51.77
2022-11-14T02:12:45.916Z,65.27
2022-11-14T02:13:20.939Z,73.68
2022-11-14T02:13:56.429Z,60.86
2022-11-14T02:14:31.744Z,51.55
2022-11-14T02:15:07.041Z,48.16
2022-11-14T02:15:42.345Z,73.07
2022-11-14T02:16:17.644Z,69.42
2022-11-14T02:17:14.798Z,66.01
2022-11-14T02:17:30.654Z,38.09
2022-11-14T02:18:03.265Z,75.91
2022-11-14T02:18:38.671Z,52.62
2022-11-14T02:19:13.567Z,67.63
2022-11-14T02:19:48.769Z,73.18
2022-11-14T02:20:24.157Z,87.40
2022-11-14T02:20:59.760Z,63.08
2022-11-14T02:21:35.158Z,73.93
2022-11-14T02:22:10.436Z,59.35
2022-11-14T02:22:45.836Z,74.40
2022-11-14T02:23:21.436Z,48.79
2022-11-14T02:23:56.961Z,58.60
2022-11-14T02:24:32.359Z,28.21
2022-11-14T02:25:07.838Z,63.81
2022-11-14T02:25:42.935Z,55.59
2022-11-14T02:26:18.420Z,72.34
2022-11-14T02:26:54.023Z,57.34
2022-11-14T02:27:29.396Z,52.59
2022-11-14T02:28:04.695Z,41.55
2022-11-14T02:28:39.798Z,63.68
2022-11-14T02:29:14.992Z,60.11
2022-11-14T02:29:50.394Z,73.68
2022-11-14T02:30:25.799Z,75.00
2022-11-14T02:31:01.335Z,67.29
2022-11-14T02:31:36.824Z,71.81
2022-11-14T02:32:12.209Z,51.91
2022-11-14T02:33:13.627Z,42.73
2022-11-14T02:33:22.895Z,30.00
2022-11-14T02:33:58.088Z,53.27
2022-11-14T02:34:33.291Z,48.73
2022-11-14T02:35:08.284Z,70.97
2022-11-14T02:35:43.385Z,75.00
2022-11-14T02:36:18.568Z,40.48
2022-11-14T02:36:53.885Z,30.00
2022-11-14T02:37:29.372Z,30.00
2022-11-14T02:38:04.669Z,65.30
2022-11-14T02:38:40.076Z,75.00
2022-11-14T02:39:15.476Z,75.00
2022-11-14T02:39:50.567Z,75.00
2022-11-14T02:40:25.867Z,75.00
2022-11-14T02:41:01.287Z,69.58
2022-11-14T02:41:36.395Z,75.00
2022-11-14T02:42:11.587Z,49.47
2022-11-14T02:42:47.088Z,75.00
2022-11-14T02:43:22.679Z,50.25
2022-11-14T02:43:57.970Z,55.29
2022-11-14T02:44:33.453Z,50.34
2022-11-14T02:45:08.843Z,38.26
2022-11-14T02:45:43.849Z,47.95
2022-11-14T02:46:18.944Z,52.52
2022-11-14T02:46:54.550Z,57.09
2022-11-14T02:47:29.539Z,67.44
2022-11-14T02:48:04.539Z,61.60
2022-11-14T02:48:39.637Z,75.00
2022-11-14T02:49:14.827Z,68.86
2022-11-14T02:49:50.003Z,70.97
2022-11-14T02:50:25.212Z,50.99
2022-11-14T02:51:00.099Z,70.97
2022-11-14T02:51:35.199Z,75.00
2022-11-14T02:52:10.381Z,75.00
2022-11-14T02:52:45.796Z,75.00
2022-11-14T02:53:21.015Z,68.95
2022-11-14T02:53:56.003Z,64.19
2022-11-14T02:54:31.041Z,40.48
2022-11-14T02:55:06.518Z,64.55
2022-11-14T02:55:41.914Z,72.98
2022-11-14T02:56:17.106Z,75.00
2022-11-14T02:56:52.498Z,63.42
2022-11-14T02:57:27.784Z,68.17
2022-11-14T02:58:03.078Z,77.29
2022-11-14T02:58:38.499Z,60.86
2022-11-14T02:59:13.903Z,57.84
2022-11-14T02:59:49.282Z,72.34
2022-11-14T03:00:24.448Z,50.20
2022-11-14T03:01:19.741Z,58.97
2022-11-14T03:01:35.114Z,40.48
2022-11-14T03:02:10.398Z,69.58
2022-11-14T03:02:45.369Z,60.11
2022-11-14T03:03:20.721Z,54.10
2022-11-14T03:03:55.923Z,55.27
2022-11-14T03:04:31.311Z,71.63
2022-11-14T03:05:06.488Z,61.59
2022-11-14T03:05:41.508Z,51.77
2022-11-14T03:06:16.700Z,60.85
2022-11-14T03:06:52.135Z,60.82
2022-11-14T03:07:27.270Z,51.03
2022-11-14T03:08:02.284Z,56.34
2022-11-14T03:08:37.584Z,62.99
2022-11-14T03:09:12.773Z,42.41
2022-11-14T03:09:48.192Z,59.10
2022-11-14T03:10:23.685Z,50.11
2022-11-14T03:10:58.930Z,53.27
2022-11-14T03:11:34.160Z,38.65
2022-11-14T03:12:09.355Z,45.37
2022-11-14T03:12:44.468Z,64.55
2022-11-14T03:13:19.603Z,50.20
2022-11-14T03:13:54.984Z,75.00
2022-11-14T03:14:30.185Z,49.59
2022-11-14T03:15:05.481Z,221.49
2022-11-14T03:15:40.662Z,2.65
2022-11-14T03:16:15.758Z,58.60
2022-11-14T03:16:50.953Z,59.75
2022-11-14T03:17:26.435Z,75.00
2022-11-14T03:18:01.727Z,52.31
2022-11-14T03:18:37.157Z,63.77
2022-11-14T03:19:12.536Z,72.34
2022-11-14T03:19:47.947Z,63.08
2022-11-14T03:20:23.436Z,75.00
2022-11-14T03:20:59.109Z,50.05
2022-11-14T03:21:34.219Z,75.00
2022-11-14T03:22:09.418Z,50.60
2022-11-14T03:22:44.717Z,33.22
2022-11-14T03:23:20.107Z,65.20
2022-11-14T03:23:55.206Z,47.95
2022-11-14T03:24:30.329Z,58.60
2022-11-14T03:25:05.795Z,72.98
2022-11-14T03:25:41.104Z,55.94
2022-11-14T03:26:17.608Z,73.39
2022-11-14T03:26:52.790Z,66.01
2022-11-14T03:27:28.262Z,75.00
2022-11-14T03:28:03.267Z,51.85
2022-11-14T03:28:38.466Z,41.95
2022-11-14T03:29:13.566Z,69.53
2022-11-14T03:29:48.853Z,48.00
2022-11-14T03:30:24.062Z,53.94
2022-11-14T03:30:59.255Z,72.98
2022-11-14T03:31:34.444Z,65.27
2022-11-14T03:32:09.637Z,52.02
2022-11-14T03:32:44.832Z,50.99
2022-11-14T03:33:19.847Z,34.03
2022-11-14T03:33:55.139Z,21.30
2022-11-14T03:34:30.433Z,30.00
2022-11-14T03:35:05.738Z,30.00
2022-11-14T03:35:40.928Z,39.70
2022-11-14T03:36:16.227Z,54.76
2022-11-14T03:36:51.733Z,81.07
2022-11-14T03:37:26.910Z,51.73
2022-11-14T03:38:02.213Z,49.06
2022-11-14T03:38:37.314Z,75.00
2022-11-14T03:39:12.603Z,69.58
2022-11-14T03:39:47.978Z,75.00
2022-11-14T03:40:23.021Z,75.00
2022-11-14T03:40:58.264Z,62.34
2022-11-14T03:41:33.549Z,47.51
2022-11-14T03:42:08.740Z,48.79
2022-11-14T03:42:44.319Z,65.27
2022-11-14T03:43:19.437Z,70.25
2022-11-14T03:43:54.720Z,50.20
2022-11-14T03:44:29.909Z,66.71
2022-11-14T03:45:05.219Z,68.49
2022-11-14T03:45:40.494Z,68.13
2022-11-14T03:46:15.485Z,46.63
2022-11-14T03:46:50.671Z,53.27
2022-11-14T03:47:25.991Z,46.31
2022-11-14T03:48:01.196Z,55.27
2022-11-14T03:48:36.596Z,61.60
2022-11-14T03:49:11.807Z,57.09
2022-11-14T03:49:47.203Z,46.43
2022-11-14T03:50:22.189Z,70.97
2022-11-14T03:50:57.101Z,35.65
2022-11-14T03:51:32.492Z,61.60
2022-11-14T03:52:07.895Z,41.49
2022-11-14T03:52:42.984Z,60.84
2022-11-14T03:53:18.415Z,55.35
2022-11-14T03:53:53.904Z,69.48
2022-11-14T03:54:29.310Z,44.93
2022-11-14T03:55:04.616Z,67.29
2022-11-14T03:55:39.926Z,42.71
2022-11-14T03:56:15.253Z,67.44
2022-11-14T03:56:50.462Z,61.55
2022-11-14T03:57:25.671Z,61.90
2022-11-14T03:58:00.775Z,72.57
2022-11-14T03:58:36.179Z,72.34
2022-11-14T03:59:11.504Z,66.01
2022-11-14T03:59:46.792Z,51.61
2022-11-14T04:00:22.003Z,52.55
2022-11-14T04:00:57.238Z,37.81
2022-11-14T04:01:32.393Z,55.48
2022-11-14T04:02:07.491Z,45.96
2022-11-14T04:02:42.593Z,54.84
2022-11-14T04:03:17.856Z,51.64
2022-11-14T04:03:53.154Z,60.11
2022-11-14T04:04:28.750Z,63.83
2022-11-14T04:05:03.850Z,54.07
2022-11-14T04:05:39.153Z,32.66
2022-11-14T04:06:14.652Z,66.74
2022-11-14T04:06:50.294Z,66.71
2022-11-14T04:07:25.279Z,53.18
2022-11-14T04:08:00.452Z,194.77
2022-11-14T04:08:35.870Z,62.97
2022-11-14T04:09:10.957Z,63.74
2022-11-14T04:09:46.065Z,75.00
2022-11-14T04:10:21.153Z,75.00
2022-11-14T04:10:56.850Z,72.98
2022-11-14T04:11:32.176Z,58.60
2022-11-14T04:12:10.129Z,73.61
2022-11-14T04:12:42.459Z,74.31
2022-11-14T04:13:17.687Z,75.00
2022-11-14T04:13:52.886Z,73.63
2022-11-14T04:14:28.175Z,75.00
2022-11-14T04:15:03.388Z,58.60
2022-11-14T04:15:38.594Z,72.34
2022-11-14T04:16:13.923Z,74.58
2022-11-14T04:16:49.177Z,65.84
2022-11-14T04:17:24.356Z,63.24
2022-11-14T04:17:59.658Z,58.49
2022-11-14T04:18:35.074Z,30.00
2022-11-14T04:19:10.282Z,30.00
2022-11-14T04:19:45.569Z,30.00
2022-11-14T04:20:20.754Z,46.43
2022-11-14T04:20:55.959Z,51.77
2022-11-14T04:21:30.955Z,75.00
2022-11-14T04:22:06.662Z,75.00
2022-11-14T04:22:41.757Z,65.30
2022-11-14T04:23:16.969Z,75.00
2022-11-14T04:23:52.271Z,52.52
2022-11-14T04:24:27.577Z,36.94
2022-11-14T04:25:03.062Z,51.08
2022-11-14T04:25:38.272Z,59.36
2022-11-14T04:26:13.571Z,52.10
2022-11-14T04:26:49.064Z,49.09
2022-11-14T04:27:24.264Z,68.17
2022-11-14T04:27:59.461Z,53.07
2022-11-14T04:28:34.665Z,63.81
2022-11-14T04:29:10.078Z,68.20
2022-11-14T04:29:45.616Z,55.57
2022-11-14T04:30:20.755Z,63.83
2022-11-14T04:30:55.723Z,44.93
2022-11-14T04:31:31.046Z,65.74
2022-11-14T04:32:06.145Z,50.99
2022-11-14T04:32:41.339Z,160.33
2022-11-14T04:33:16.550Z,42.65
2022-11-14T04:33:51.790Z,57.86
2022-11-14T04:34:27.381Z,30.00
2022-11-14T04:35:02.569Z,30.00
2022-11-14T04:35:37.869Z,25.41
2022-11-14T04:36:12.977Z,60.86
2022-11-14T04:36:48.083Z,68.15
2022-11-14T04:37:23.481Z,300.00
2022-11-14T04:37:58.774Z,300.00
2022-11-14T04:38:33.968Z,298.19
2022-11-14T04:39:09.069Z,232.19
2022-11-14T04:39:44.401Z,30.48
2022-11-14T04:40:19.698Z,75.00
2022-11-14T04:40:54.943Z,75.00
2022-11-14T04:41:30.439Z,75.00
2022-11-14T04:42:06.053Z,48.68
2022-11-14T04:42:40.951Z,60.82
2022-11-14T04:43:16.164Z,75.00
2022-11-14T04:43:51.463Z,75.00
2022-11-14T04:44:26.747Z,75.00
2022-11-14T04:45:02.375Z,75.00
2022-11-14T04:45:37.377Z,75.00
2022-11-14T04:46:12.381Z,94.66
2022-11-14T04:46:47.691Z,171.74
2022-11-14T04:47:22.998Z,255.00
2022-11-14T04:47:57.999Z,255.00
2022-11-14T04:48:33.266Z,255.00
2022-11-14T04:49:08.225Z,255.00
2022-11-14T04:49:43.526Z,255.00
2022-11-14T04:50:18.931Z,255.00
2022-11-14T04:50:54.324Z,257.05
2022-11-14T04:51:29.521Z,217.34
2022-11-14T04:52:04.621Z,233.00
2022-11-14T04:52:39.711Z,195.34
2022-11-14T04:53:15.136Z,148.62
2022-11-14T04:53:50.319Z,235.42
2022-11-14T04:54:25.954Z,217.18
2022-11-14T04:55:01.251Z,236.53
2022-11-14T04:55:36.231Z,233.00
2022-11-14T04:56:11.652Z,233.00
2022-11-14T04:56:47.138Z,97.80
2022-11-14T04:57:22.670Z,75.00
2022-11-14T04:57:57.969Z,75.00
2022-11-14T04:58:33.714Z,75.00
2022-11-14T04:59:08.714Z,210.06
2022-11-14T04:59:43.703Z,246.00
2022-11-14T05:00:18.910Z,36.02
2022-11-14T05:00:53.890Z,70.97
2022-11-14T05:01:29.456Z,71.50
2022-11-14T05:02:04.799Z,70.97
2022-11-14T05:02:39.794Z,75.00
2022-11-14T05:03:15.210Z,75.00
2022-11-14T05:03:50.506Z,75.00
2022-11-14T05:04:25.902Z,75.00
2022-11-14T05:05:01.094Z,75.00
2022-11-14T05:05:40.722Z,75.00
2022-11-14T05:06:11.334Z,75.00
2022-11-14T05:06:46.776Z,47.39
2022-11-14T05:07:21.869Z,45.64
2022-11-14T05:07:57.013Z,75.00
2022-11-14T05:08:32.637Z,75.00
2022-11-14T05:09:07.637Z,75.00
2022-11-14T05:09:43.031Z,75.00
2022-11-14T05:10:18.248Z,75.00
2022-11-14T05:10:53.447Z,21.07
2022-11-14T05:11:29.487Z,345.00
2022-11-14T05:12:04.247Z,345.00
2022-11-14T05:12:39.542Z,345.00
2022-11-14T05:13:15.636Z,50.91
2022-11-14T05:13:50.934Z,104.72
2022-11-14T05:14:25.936Z,77.55
2022-11-14T05:15:01.233Z,75.00
2022-11-14T05:15:36.442Z,75.00
2022-11-14T05:16:11.447Z,75.00
2022-11-14T05:16:46.744Z,61.60
2022-11-14T05:17:21.968Z,30.00
2022-11-14T05:17:57.151Z,30.00
2022-11-14T05:18:32.729Z,30.00
2022-11-14T05:19:07.501Z,30.00
2022-11-14T05:19:42.591Z,30.00
2022-11-14T05:20:17.896Z,30.00
2022-11-14T05:20:53.003Z,30.00
2022-11-14T05:21:28.107Z,30.00
2022-11-14T05:22:03.229Z,30.00
2022-11-14T05:22:38.511Z,30.00
2022-11-14T05:23:14.016Z,30.00
2022-11-14T05:23:49.215Z,30.00
2022-11-14T05:24:24.425Z,30.00
2022-11-14T05:24:59.618Z,70.97
2022-11-14T05:25:34.825Z,75.00
2022-11-14T05:26:10.130Z,75.00
2022-11-14T05:26:45.339Z,75.00
2022-11-14T05:27:20.935Z,70.97
2022-11-14T05:27:56.239Z,75.00
2022-11-14T05:28:31.825Z,69.58
2022-11-14T05:29:06.743Z,69.06
2022-11-14T05:29:41.937Z,45.94
2022-11-14T05:30:17.062Z,218.83
2022-11-14T05:30:52.151Z,75.00
2022-11-14T05:31:27.260Z,75.00
2022-11-14T05:32:02.335Z,75.00
2022-11-14T05:32:37.934Z,268.01
2022-11-14T05:33:13.123Z,31.32
2022-11-14T05:33:48.420Z,336.07
2022-11-14T05:34:23.510Z,68.17
2022-11-14T05:34:58.815Z,75.00
2022-11-14T05:35:34.007Z,75.00
2022-11-14T05:36:09.412Z,75.00
2022-11-14T05:36:44.425Z,345.00
2022-11-14T05:37:19.726Z,357.40
2022-11-14T05:37:58.877Z,76.85
2022-11-14T05:38:30.410Z,57.09
2022-11-14T05:39:05.336Z,75.00
2022-11-14T05:39:40.722Z,75.00
2022-11-14T05:40:16.022Z,75.00
2022-11-14T05:40:51.013Z,75.00
2022-11-14T05:41:26.748Z,75.00
2022-11-14T05:42:02.017Z,75.00
2022-11-14T05:42:37.299Z,40.48
2022-11-14T05:43:12.505Z,69.58
2022-11-14T05:43:47.590Z,75.00
2022-11-14T05:44:22.997Z,75.00
2022-11-14T05:44:58.612Z,75.00
2022-11-14T05:45:33.798Z,75.00
2022-11-14T05:46:09.015Z,71.62
2022-11-14T05:46:44.199Z,31.82
2022-11-14T05:47:19.308Z,24.62
2022-11-14T05:47:54.826Z,54.02
2022-11-14T05:48:30.407Z,75.00
2022-11-14T05:49:05.330Z,75.00
2022-11-14T05:49:40.610Z,75.00
2022-11-14T05:50:15.723Z,75.00
2022-11-14T05:50:50.723Z,74.47
2022-11-14T05:51:25.827Z,75.00
2022-11-14T05:52:00.820Z,75.00
2022-11-14T05:52:35.924Z,75.00
2022-11-14T05:53:10.923Z,75.00
2022-11-14T05:53:46.120Z,193.00
2022-11-14T05:54:21.428Z,209.28
2022-11-14T05:54:56.636Z,209.39
2022-11-14T05:55:31.935Z,210.00
2022-11-14T05:56:07.033Z,209.39
2022-11-14T05:56:42.432Z,209.65
2022-11-14T05:57:17.538Z,190.90
2022-11-14T05:57:52.720Z,75.00
2022-11-14T05:58:28.260Z,75.00
2022-11-14T05:59:03.147Z,75.00
2022-11-14T05:59:38.445Z,75.00
2022-11-14T06:00:13.546Z,35.42
2022-11-14T06:00:53.886Z,75.00
2022-11-14T06:01:24.079Z,70.97
2022-11-14T06:01:59.519Z,30.00
2022-11-14T06:02:34.789Z,30.00
2022-11-14T06:03:09.884Z,30.00
2022-11-14T06:03:45.173Z,30.00
2022-11-14T06:04:20.391Z,30.00
2022-11-14T06:04:55.493Z,30.00
2022-11-14T06:05:30.776Z,142.23
2022-11-14T06:06:06.080Z,170.35
2022-11-14T06:06:41.390Z,171.91
2022-11-14T06:07:19.950Z,174.72
2022-11-14T06:07:51.881Z,176.18
2022-11-14T06:08:27.788Z,174.70
2022-11-14T06:09:02.539Z,171.85
2022-11-14T06:09:37.725Z,168.99
2022-11-14T06:10:13.143Z,176.21
2022-11-14T06:10:48.145Z,283.46
2022-11-14T06:11:23.583Z,300.00
2022-11-14T06:11:58.599Z,300.00
2022-11-14T06:12:33.695Z,300.00
2022-11-14T06:13:08.917Z,300.00
2022-11-14T06:13:44.034Z,300.00
2022-11-14T06:14:19.463Z,300.00
2022-11-14T06:14:54.758Z,300.00
2022-11-14T06:15:29.864Z,300.00
2022-11-14T06:16:05.052Z,300.00
2022-11-14T06:16:40.369Z,300.00
2022-11-14T06:17:15.650Z,300.00
2022-11-14T06:17:50.852Z,300.00
2022-11-14T06:18:26.070Z,300.00
2022-11-14T06:19:01.262Z,300.00
2022-11-14T06:19:36.467Z,300.00
2022-11-14T06:20:11.784Z,300.00
2022-11-14T06:20:47.062Z,300.00
2022-11-14T06:21:22.423Z,300.00
2022-11-14T06:21:57.603Z,306.83
2022-11-14T06:22:32.711Z,18.80
2022-11-14T06:23:07.705Z,75.00
2022-11-14T06:23:42.925Z,76.51
2022-11-14T06:24:18.518Z,230.25
2022-11-14T06:24:53.805Z,215.39
2022-11-14T06:25:29.428Z,208.77
2022-11-14T06:26:04.706Z,210.68
2022-11-14T06:26:40.223Z,210.00
2022-11-14T06:27:15.534Z,208.77
2022-11-14T06:27:50.821Z,225.64
2022-11-14T06:28:26.023Z,210.82
2022-11-14T06:29:01.309Z,2.42
2022-11-14T06:29:36.414Z,267.86
2022-11-14T06:30:11.587Z,207.77
2022-11-14T06:30:46.828Z,267.22
2022-11-14T06:31:21.891Z,253.78
2022-11-14T06:31:57.191Z,41.55
2022-11-14T06:32:32.496Z,66.03
2022-11-14T06:33:07.595Z,305.75
2022-11-14T06:33:42.685Z,255.00
2022-11-14T06:34:17.966Z,255.00
2022-11-14T06:34:53.261Z,255.00
2022-11-14T06:35:28.458Z,255.00
2022-11-14T06:36:03.687Z,234.04
2022-11-14T06:36:38.802Z,209.78
2022-11-14T06:37:14.490Z,212.77
2022-11-14T06:37:49.793Z,109.08
2022-11-14T06:38:24.891Z,196.91
2022-11-14T06:38:59.884Z,224.34
2022-11-14T06:39:35.270Z,225.28
2022-11-14T06:40:10.613Z,208.55
2022-11-14T06:40:45.919Z,208.22
2022-11-14T06:41:20.930Z,236.18
2022-11-14T06:41:56.466Z,178.12
2022-11-14T06:42:31.841Z,177.65
2022-11-14T06:43:07.029Z,175.91
2022-11-14T06:43:42.025Z,208.49
2022-11-14T06:44:18.063Z,348.19
2022-11-14T06:44:52.411Z,203.43
2022-11-14T06:45:27.815Z,198.07
2022-11-14T06:46:03.349Z,77.55
2022-11-14T06:46:38.666Z,62.49
2022-11-14T06:47:14.063Z,200.45
2022-11-14T06:47:49.347Z,222.97
2022-11-14T06:48:24.668Z,223.38
2022-11-14T06:49:00.064Z,188.08
2022-11-14T06:49:39.362Z,218.63
2022-11-14T06:50:10.972Z,75.74
2022-11-14T06:50:46.054Z,196.95
2022-11-14T06:51:21.284Z,148.97
2022-11-14T06:51:56.693Z,214.03
2022-11-14T06:52:31.907Z,229.57
2022-11-14T06:53:07.202Z,255.00
2022-11-14T06:53:42.407Z,300.00
2022-11-14T06:54:17.799Z,30.00
2022-11-14T06:54:52.869Z,30.00
2022-11-14T06:55:28.098Z,30.00
2022-11-14T06:56:03.393Z,30.00
2022-11-14T06:56:38.818Z,30.00
2022-11-14T06:57:14.052Z,28.68
2022-11-14T06:57:49.347Z,329.20
2022-11-14T06:58:24.551Z,30.00
2022-11-14T06:58:59.649Z,64.55
2022-11-14T06:59:34.972Z,75.00
2022-11-14T07:00:10.000Z,75.00
2022-11-14T07:00:45.002Z,61.60
2022-11-14T07:01:20.497Z,68.17
2022-11-14T07:01:55.913Z,57.84
2022-11-14T07:02:31.215Z,75.00
2022-11-14T07:03:06.714Z,75.00
2022-11-14T07:03:41.842Z,75.00
2022-11-14T07:04:17.135Z,75.00
2022-11-14T07:04:52.441Z,51.77
2022-11-14T07:05:27.538Z,58.60
2022-11-14T07:06:02.644Z,69.48
2022-11-14T07:06:37.937Z,75.00
2022-11-14T07:07:13.565Z,33.94
2022-11-14T07:07:48.976Z,60.85
2022-11-14T07:08:24.164Z,73.68
2022-11-14T07:08:59.274Z,54.04
2022-11-14T07:09:34.570Z,75.00
2022-11-14T07:10:09.781Z,75.00
2022-11-14T07:10:45.287Z,75.00
2022-11-14T07:11:20.795Z,75.00
2022-11-14T07:11:56.195Z,72.83
2022-11-14T07:12:31.283Z,75.00
2022-11-14T07:13:06.519Z,75.00
2022-11-14T07:13:41.811Z,75.00
2022-11-14T07:14:17.203Z,65.30
2022-11-14T07:14:52.286Z,79.78
2022-11-14T07:15:27.682Z,72.60
2022-11-14T07:16:02.887Z,63.83
2022-11-14T07:16:38.082Z,64.55
2022-11-14T07:17:13.076Z,75.00
2022-11-14T07:17:48.262Z,75.00
2022-11-14T07:18:23.398Z,70.97
2022-11-14T07:18:58.791Z,41.37
2022-11-14T07:19:33.895Z,75.00
2022-11-14T07:20:09.112Z,75.00
2022-11-14T07:20:44.846Z,75.00
2022-11-14T07:21:19.948Z,75.00
2022-11-14T07:21:55.526Z,75.00
2022-11-14T07:22:31.041Z,75.00
2022-11-14T07:23:06.366Z,75.00
2022-11-14T07:23:41.674Z,75.00
2022-11-14T07:24:16.872Z,75.00
2022-11-14T07:24:52.560Z,75.00
2022-11-14T07:25:27.873Z,75.00
2022-11-14T07:26:02.961Z,68.17
2022-11-14T07:26:38.569Z,75.00
2022-11-14T07:27:13.862Z,75.00
2022-11-14T07:27:49.066Z,64.52
2022-11-14T07:28:23.954Z,75.00
2022-11-14T07:29:02.589Z,75.00
2022-11-14T07:29:34.482Z,75.00
2022-11-14T07:30:09.966Z,75.00
2022-11-14T07:30:45.194Z,75.00
2022-11-14T07:31:20.503Z,75.00
2022-11-14T07:31:55.899Z,75.00